Time;durP1;ratioP1;P1;durP2;ratioP2;P2;SDS_P1;SDS_P2;PMS_P1;PMS_P2;Temp;Humidity;BMP_temperature;BMP_pressure;BME280_temperature;BME280_humidity;BME280_pressure;Samples;Min_cycle;Max_cycle;Signal;HPM_P1;HPM_P2
2022/10/03 00:00:22;;;;;;;8.20;3.50;;;;;;;10.07;100.00;101228.31;20820244;28;20133;-69
2022/10/03 00:10:24;;;;;;;8.82;3.97;;;;;;;10.02;100.00;101241.41;20817734;28;20073;-71
2022/10/03 00:20:25;;;;;;;10.35;4.28;;;;;;;10.05;100.00;101240.50;20820139;28;20152;-73
2022/10/03 00:30:26;;;;;;;20.23;5.68;;;;;;;9.97;100.00;101253.63;20820238;28;20571;-72
2022/10/03 00:40:27;;;;;;;12.68;4.97;;;;;;;9.98;100.00;101258.84;20819578;28;20053;-70
2022/10/03 00:50:29;;;;;;;12.40;5.45;;;;;;;10.12;100.00;101263.22;20818845;28;20486;-72
2022/10/03 01:00:30;;;;;;;12.75;5.28;;;;;;;10.20;100.00;101271.91;20816689;28;20391;-71
2022/10/03 01:10:31;;;;;;;9.25;5.35;;;;;;;10.24;100.00;101285.03;20815254;28;20077;-71
2022/10/03 01:20:33;;;;;;;13.00;5.75;;;;;;;10.30;100.00;101309.44;20813212;28;20077;-71
2022/10/03 01:30:34;;;;;;;16.08;6.35;;;;;;;10.29;100.00;101313.81;20816505;28;20042;-72
2022/10/03 01:40:35;;;;;;;13.35;5.10;;;;;;;10.19;100.00;101306.81;20813380;28;20077;-70
2022/10/03 01:50:37;;;;;;;11.10;5.65;;;;;;;10.05;100.00;101309.41;20813244;28;20079;-71
2022/10/03 02:00:38;;;;;;;12.23;5.68;;;;;;;9.87;100.00;101305.06;20811420;28;20071;-70
2022/10/03 02:10:39;;;;;;;11.80;5.78;;;;;;;9.75;100.00;101315.47;20811173;28;20049;-72
2022/10/03 02:20:41;;;;;;;10.65;4.78;;;;;;;9.64;100.00;101311.97;20809042;28;20053;-69
2022/10/03 02:30:42;;;;;;;13.15;4.90;;;;;;;9.48;100.00;101309.28;20810647;28;20041;-71
2022/10/03 02:40:44;;;;;;;9.27;4.38;;;;;;;9.31;100.00;101317.94;20809579;28;20057;-70
2022/10/03 02:50:45;;;;;;;12.48;4.88;;;;;;;9.18;100.00;101312.66;20807367;28;20481;-70
2022/10/03 03:00:47;;;;;;;12.15;5.05;;;;;;;9.12;100.00;101310.03;20806957;28;20091;-71
2022/10/03 03:10:48;;;;;;;8.75;4.72;;;;;;;9.07;100.00;101309.13;20807977;28;20072;-72
2022/10/03 03:20:51;;;;;;;10.10;5.18;;;;;;;9.03;100.00;101301.28;20806773;28;20136;-71
2022/10/03 03:30:52;;;;;;;14.93;5.97;;;;;;;8.95;100.00;101322.97;20805980;28;20455;-71
2022/10/03 03:40:54;;;;;;;10.68;6.10;;;;;;;8.82;100.00;101329.03;20805015;28;20152;-69
2022/10/03 03:50:56;;;;;;;10.25;5.80;;;;;;;8.89;100.00;101336.00;20805403;28;20643;-70
2022/10/03 04:00:57;;;;;;;9.65;5.10;;;;;;;8.95;100.00;101336.03;20803963;28;20107;-69
2022/10/03 04:10:58;;;;;;;8.43;5.18;;;;;;;8.85;100.00;101336.84;20804372;28;20076;-69
2022/10/03 04:21:00;;;;;;;11.88;5.25;;;;;;;8.78;100.00;101362.94;20803892;28;20068;-70
2022/10/03 04:31:01;;;;;;;12.88;5.20;;;;;;;8.68;100.00;101362.88;20804300;28;20045;-73
2022/10/03 04:41:03;;;;;;;8.80;4.38;;;;;;;8.54;100.00;101363.63;20811070;28;20080;-69
2022/10/03 04:51:05;;;;;;;8.57;4.38;;;;;;;8.38;100.00;101367.81;20817348;28;20560;-70
2022/10/03 05:01:06;;;;;;;9.07;3.90;;;;;;;8.23;100.00;101360.69;20816294;28;20113;-70
2022/10/03 05:11:08;;;;;;;9.02;4.22;;;;;;;8.10;100.00;101377.13;20815668;28;20064;-69
2022/10/03 05:21:09;;;;;;;12.93;4.65;;;;;;;8.02;100.00;101390.06;20815302;28;20045;-70
2022/10/03 05:31:10;;;;;;;7.80;4.70;;;;;;;7.81;100.00;101395.94;20815649;28;20049;-72
2022/10/03 05:41:12;;;;;;;8.50;4.40;;;;;;;7.68;100.00;101404.47;20814052;28;20053;-70
2022/10/03 05:51:13;;;;;;;11.45;4.80;;;;;;;7.66;100.00;101414.84;20811666;28;20144;-69
2022/10/03 06:01:14;;;;;;;10.13;4.15;;;;;;;7.72;100.00;101437.53;20811289;28;20085;-73
2022/10/03 06:11:16;;;;;;;8.70;5.10;;;;;;;7.84;100.00;101431.56;20812671;28;20108;-70
2022/10/03 06:21:17;;;;;;;8.68;4.28;;;;;;;7.93;100.00;101457.75;20811623;28;20354;-72
2022/10/03 06:31:19;;;;;;;10.65;5.22;;;;;;;8.19;100.00;101458.94;20810184;28;20140;-70
2022/10/03 06:41:20;;;;;;;10.68;5.88;;;;;;;8.47;100.00;101465.34;20808740;28;20045;-71
2022/10/03 06:51:22;;;;;;;16.20;8.38;;;;;;;8.68;100.00;101476.88;20809067;28;20508;-71
2022/10/03 07:01:30;;;;;;;15.77;8.70;;;;;;;8.95;100.00;101479.69;20805917;28;20068;-71
2022/10/03 07:11:33;;;;;;;16.88;8.80;;;;;;;9.19;100.00;101480.75;20806390;28;20072;-70
2022/10/03 07:21:34;;;;;;;17.77;9.77;;;;;;;9.45;100.00;101484.44;20804103;28;20087;-70
2022/10/03 07:31:36;;;;;;;20.77;9.70;;;;;;;9.66;100.00;101490.66;20805779;28;20137;-70
2022/10/03 07:41:38;;;;;;;22.25;10.60;;;;;;;10.03;100.00;101495.19;20804263;28;20099;-70
2022/10/03 07:51:41;;;;;;;26.80;14.80;;;;;;;10.38;100.00;101507.56;20796118;28;20111;-71
2022/10/03 08:01:42;;;;;;;35.22;16.75;;;;;;;10.66;100.00;101505.00;20792172;28;20049;-70
2022/10/03 08:11:43;;;;;;;34.05;16.98;;;;;;;11.07;100.00;101509.38;20801868;28;20049;-70
2022/10/03 08:22:06;;;;;;;34.20;17.73;;;;;;;11.46;100.00;101509.38;20818394;28;20053;-69
2022/10/03 08:32:07;;;;;;;31.30;17.02;;;;;;;11.98;100.00;101514.53;20816770;28;20056;-69
2022/10/03 08:42:11;;;;;;;26.90;15.23;;;;;;;12.52;100.00;101515.13;20817986;28;20464;-71
2022/10/03 08:52:20;;;;;;;28.73;14.85;;;;;;;12.53;100.00;101513.38;20817258;28;20053;-70
2022/10/03 09:02:21;;;;;;;24.48;12.38;;;;;;;12.38;100.00;101518.72;20815240;28;20061;-69
2022/10/03 09:12:24;;;;;;;26.73;13.30;;;;;;;12.60;100.00;101509.84;20815817;28;20053;-71
2022/10/03 09:22:26;;;;;;;23.50;11.80;;;;;;;13.17;100.00;101499.75;20813179;28;20084;-72
2022/10/03 09:32:28;;;;;;;18.58;9.65;;;;;;;13.48;100.00;101508.28;20813236;28;20468;-70
2022/10/03 09:42:30;;;;;;;21.70;10.68;;;;;;;13.77;100.00;101504.47;20813338;28;20403;-70
2022/10/03 09:52:33;;;;;;;20.08;9.82;;;;;;;14.54;100.00;101505.25;20807922;28;20136;-70
2022/10/03 10:02:35;;;;;;;18.35;8.52;;;;;;;14.70;100.00;101505.03;20810033;28;20206;-69
2022/10/03 10:12:36;;;;;;;14.90;7.43;;;;;;;14.87;100.00;101505.63;20811077;28;20049;-69
2022/10/03 10:22:39;;;;;;;17.30;7.68;;;;;;;14.86;100.00;101499.50;20809309;28;20099;-70
2022/10/03 10:32:40;;;;;;;12.77;6.45;;;;;;;15.11;100.00;101493.81;20810223;28;20049;-69
2022/10/03 10:42:42;;;;;;;14.57;5.45;;;;;;;14.84;100.00;101487.22;20808436;28;20144;-69
2022/10/03 10:52:43;;;;;;;15.90;5.55;;;;;;;14.73;100.00;101483.88;20806115;28;20446;-69
2022/10/03 11:02:45;;;;;;;17.40;7.70;;;;;;;15.01;100.00;101494.88;20807216;28;20415;-69
2022/10/03 11:12:46;;;;;;;11.70;3.70;;;;;;;14.78;100.00;101472.38;20807121;28;20061;-68
2022/10/03 11:22:47;;;;;;;19.15;6.15;;;;;;;14.83;100.00;101474.94;20805240;28;20099;-68
2022/10/03 11:32:49;;;;;;;13.90;6.10;;;;;;;14.64;100.00;101484.91;20806049;28;20701;-68
2022/10/03 11:42:50;;;;;;;18.50;5.75;;;;;;;14.57;100.00;101478.00;20805333;28;20358;-68
2022/10/03 11:52:51;;;;;;;11.45;4.65;;;;;;;15.16;100.00;101467.34;20815892;28;20049;-68
2022/10/03 12:02:53;;;;;;;12.18;4.43;;;;;;;15.46;100.00;101450.97;20819815;28;20046;-68
2022/10/03 12:12:54;;;;;;;14.40;4.43;;;;;;;14.87;100.00;101442.34;20819121;28;20516;-68
2022/10/03 12:22:55;;;;;;;10.68;4.22;;;;;;;14.62;100.00;101436.63;20817502;28;20057;-68
2022/10/03 12:32:58;;;;;;;12.63;4.53;;;;;;;14.55;100.00;101432.31;20820041;28;20104;-68
2022/10/03 12:42:59;;;;;;;12.02;4.05;;;;;;;14.69;100.00;101422.44;20817644;28;20049;-67
2022/10/03 12:53:01;;;;;;;9.32;3.42;;;;;;;15.45;100.00;101414.91;20816112;28;20088;-68
2022/10/03 13:03:02;;;;;;;8.52;2.63;;;;;;;15.60;94.06;101404.03;20813929;28;20095;-68
2022/10/03 13:13:04;;;;;;;10.90;2.80;;;;;;;15.70;91.87;101402.09;20814339;28;20053;-68
2022/10/03 13:23:06;;;;;;;9.10;2.75;;;;;;;15.95;89.98;101393.66;20815117;28;20103;-67
2022/10/03 13:33:07;;;;;;;7.30;2.38;;;;;;;15.71;86.72;101384.50;20814343;28;20049;-66
2022/10/03 13:43:10;;;;;;;7.70;2.78;;;;;;;15.52;84.66;101382.22;20813481;28;20080;-66
2022/10/03 13:53:11;;;;;;;8.43;2.00;;;;;;;15.55;82.50;101374.22;20811223;28;20493;-67
2022/10/03 14:03:12;;;;;;;8.45;2.08;;;;;;;15.64;81.71;101376.72;20808482;28;20053;-66
2022/10/03 14:13:16;;;;;;;6.03;2.03;;;;;;;15.94;79.57;101370.78;20810183;28;20050;-67
2022/10/03 14:23:17;;;;;;;6.75;2.55;;;;;;;16.10;84.55;101357.22;20809651;28;20049;-67
2022/10/03 14:33:18;;;;;;;9.43;3.38;;;;;;;15.85;82.87;101367.44;20808776;28;20053;-67
2022/10/03 14:43:20;;;;;;;8.80;2.78;;;;;;;15.52;84.54;101361.13;20806870;28;20049;-67
2022/10/03 14:53:22;;;;;;;7.40;3.67;;;;;;;15.27;86.69;101359.84;20806498;28;20547;-66
2022/10/03 15:03:24;;;;;;;12.02;3.83;;;;;;;14.99;85.96;101351.59;20805921;28;20099;-67
2022/10/03 15:13:25;;;;;;;13.02;5.90;;;;;;;14.99;87.47;101338.41;20804206;28;20410;-66
2022/10/03 15:23:26;;;;;;;8.80;3.55;;;;;;;14.96;86.41;101334.06;20801748;28;20621;-65
2022/10/03 15:33:31;;;;;;;11.38;3.63;;;;;;;14.96;91.97;101328.81;20803110;28;20251;-65
2022/10/03 15:43:33;;;;;;;;;;;;;;;14.99;94.47;101334.00;20800308;28;20108;-66
2022/10/03 15:53:34;;;;;;;9.45;3.20;;;;;;;14.88;97.88;101321.03;20802007;28;19921;-65
2022/10/03 16:03:37;;;;;;;11.82;3.90;;;;;;;14.86;92.59;101322.84;20794496;28;20057;-65
2022/10/03 16:13:39;;;;;;;8.40;2.88;;;;;;;14.88;93.95;101325.44;20798562;28;20046;-66
2022/10/03 16:23:43;;;;;;;12.50;4.97;;;;;;;14.60;95.44;101320.66;20794548;28;20072;-66
2022/10/03 16:33:44;;;;;;;12.03;4.70;;;;;;;14.31;99.25;101314.97;20793001;28;20526;-66
2022/10/03 16:43:45;;;;;;;12.93;4.05;;;;;;;14.09;100.00;101312.69;20810191;28;20575;-66
2022/10/03 16:53:47;;;;;;;14.30;7.28;;;;;;;13.59;100.00;101316.91;20811263;28;20540;-66
2022/10/03 17:03:48;;;;;;;15.50;6.45;;;;;;;12.92;100.00;101312.44;20810950;28;20305;-66
2022/10/03 17:13:49;;;;;;;11.23;4.55;;;;;;;12.38;100.00;101314.72;20810812;28;20041;-66
2022/10/03 17:23:51;;;;;;;10.93;4.88;;;;;;;12.06;100.00;101307.97;20810580;28;20061;-66
2022/10/03 17:33:52;;;;;;;14.30;6.63;;;;;;;11.70;100.00;101308.19;20808251;28;20041;-66
2022/10/03 17:43:53;;;;;;;10.57;5.82;;;;;;;11.51;100.00;101294.31;20806869;28;20077;-66
2022/10/03 17:53:54;;;;;;;13.82;6.03;;;;;;;11.25;100.00;101286.53;20809298;28;20528;-66
2022/10/03 18:04:00;;;;;;;13.80;7.38;;;;;;;11.12;100.00;101283.13;20806238;28;20085;-66
2022/10/03 18:14:02;;;;;;;18.23;7.53;;;;;;;10.86;100.00;101293.69;20805879;28;20111;-66
2022/10/03 18:24:03;;;;;;;18.88;8.50;;;;;;;10.65;100.00;101310.31;20805612;28;20509;-66
2022/10/03 18:34:04;;;;;;;13.50;7.95;;;;;;;10.39;100.00;101298.97;20804914;28;20510;-66
2022/10/03 18:44:11;;;;;;;16.05;7.90;;;;;;;10.30;100.00;101294.66;20800161;28;20053;-66
2022/10/03 18:54:12;;;;;;;14.73;9.13;;;;;;;10.18;100.00;101276.28;20795127;28;20069;-66
2022/10/03 19:04:14;;;;;;;17.25;10.65;;;;;;;9.99;100.00;101278.03;20797023;28;20053;-66
2022/10/03 19:14:15;;;;;;;14.85;9.20;;;;;;;9.86;100.00;101281.47;20797558;28;20085;-66
2022/10/03 19:24:17;;;;;;;17.92;10.52;;;;;;;9.73;100.00;101275.38;20800384;28;20108;-66
2022/10/03 19:34:18;;;;;;;13.85;7.00;;;;;;;9.59;100.00;101282.31;20800800;28;20494;-66
2022/10/03 19:44:20;;;;;;;15.88;8.45;;;;;;;9.43;100.00;101274.41;20799800;28;20068;-66
2022/10/03 19:54:21;;;;;;;21.52;10.05;;;;;;;9.34;100.00;101279.66;20798696;28;20552;-66
2022/10/03 20:04:22;;;;;;;19.15;9.25;;;;;;;9.20;100.00;101278.72;20797543;28;20046;-66
2022/10/03 20:14:26;;;;;;;18.70;8.63;;;;;;;9.10;100.00;101282.13;20811832;28;20049;-67
2022/10/03 20:24:27;;;;;;;14.45;8.63;;;;;;;9.06;100.00;101265.59;20813775;28;20065;-67
2022/10/03 20:34:29;;;;;;;19.65;9.45;;;;;;;8.94;100.00;101261.16;20816436;28;20171;-68
2022/10/03 20:44:31;;;;;;;15.55;8.30;;;;;;;8.84;100.00;101267.22;20816246;28;20053;-67
2022/10/03 20:54:32;;;;;;;20.40;9.05;;;;;;;8.72;100.00;101262.81;20814753;28;20049;-67
2022/10/03 21:04:33;;;;;;;17.25;8.75;;;;;;;8.57;100.00;101269.66;20814925;28;20042;-66
2022/10/03 21:14:35;;;;;;;20.02;9.30;;;;;;;8.52;100.00;101253.97;20812170;28;20509;-67
2022/10/03 21:24:36;;;;;;;18.15;9.45;;;;;;;8.53;100.00;101242.69;20815548;28;20083;-67
2022/10/03 21:34:37;;;;;;;19.50;8.43;;;;;;;8.35;100.00;101247.75;20815349;28;20053;-67
2022/10/03 21:44:39;;;;;;;20.40;10.50;;;;;;;8.24;100.00;101245.06;20813872;28;20520;-68
2022/10/03 21:54:40;;;;;;;17.30;8.65;;;;;;;8.12;100.00;101242.34;20812239;28;20123;-67
2022/10/03 22:04:41;;;;;;;25.83;11.10;;;;;;;8.09;100.00;101224.06;20811610;28;20045;-67
2022/10/03 22:14:43;;;;;;;19.10;10.95;;;;;;;8.12;100.00;101221.47;20811643;28;20111;-68
2022/10/03 22:24:44;;;;;;;29.48;11.00;;;;;;;8.02;100.00;101214.47;20810766;28;20111;-68
2022/10/03 22:34:45;;;;;;;26.75;12.73;;;;;;;7.97;100.00;101204.00;20810370;28;20088;-67
2022/10/03 22:44:47;;;;;;;24.10;12.70;;;;;;;7.95;100.00;101204.00;20809195;28;20061;-67
2022/10/03 22:54:48;;;;;;;27.30;11.85;;;;;;;7.81;100.00;101189.97;20808206;28;20045;-68
2022/10/03 23:04:49;;;;;;;23.90;12.00;;;;;;;7.77;100.00;101177.75;20807021;28;20531;-68
2022/10/03 23:14:51;;;;;;;26.25;12.75;;;;;;;7.77;100.00;101176.91;20806540;28;20096;-68
2022/10/03 23:24:52;;;;;;;25.15;13.73;;;;;;;7.54;100.00;101166.25;20806124;28;20477;-67
2022/10/03 23:34:53;;;;;;;22.45;12.38;;;;;;;7.41;100.00;101155.72;20806382;28;20421;-68
2022/10/03 23:44:55;;;;;;;28.65;12.98;;;;;;;7.28;100.00;101153.88;20803386;28;20536;-67
2022/10/03 23:54:56;;;;;;;26.73;12.70;;;;;;;7.38;100.00;101142.69;20804226;28;20130;-68
